Time;durP1;ratioP1;P1;durP2;ratioP2;P2;SDS_P1;SDS_P2;PMS_P1;PMS_P2;Temp;Humidity;BMP_temperature;BMP_pressure;BME280_temperature;BME280_humidity;BME280_pressure;Samples;Min_cycle;Max_cycle;Signal;HPM_P1;HPM_P2
2023/02/04 00:01:29;;;;;;;1.60;1.50;;;2.80;99.90;;;;;;7381571;19;20703;-89
2023/02/04 00:03:55;;;;;;;2.00;1.70;;;2.70;99.90;;;;;;7381893;19;20336;-90
2023/02/04 00:06:20;;;;;;;2.20;1.90;;;2.70;99.90;;;;;;7384163;19;20316;-84
2023/02/04 00:08:46;;;;;;;2.37;1.93;;;2.70;99.90;;;;;;7384777;19;20378;-91
2023/02/04 00:11:12;;;;;;;2.53;1.90;;;2.80;99.90;;;;;;7383901;19;20870;-92
2023/02/04 00:13:37;;;;;;;2.53;2.10;;;2.80;99.90;;;;;;7401991;19;20349;-89
2023/02/04 00:16:03;;;;;;;2.38;2.17;;;2.80;99.90;;;;;;7413314;19;20345;-93
2023/02/04 00:18:30;;;;;;;2.10;2.00;;;2.70;99.90;;;;;;7389704;19;20352;-86
2023/02/04 00:20:55;;;;;;;2.08;1.98;;;2.70;99.90;;;;;;7393430;19;20300;-83
2023/02/04 00:23:24;;;;;;;3.05;2.20;;;2.80;99.90;;;;;;7390866;19;26342;-84
2023/02/04 00:25:50;;;;;;;2.97;2.45;;;2.70;99.90;;;;;;7392369;19;20299;-84
2023/02/04 00:28:16;;;;;;;3.40;2.57;;;2.70;99.90;;;;;;7390511;19;20317;-89
2023/02/04 00:30:41;;;;;;;2.60;2.30;;;2.70;99.90;;;;;;7391296;19;20878;-80
2023/02/04 00:33:08;;;;;;;2.50;2.30;;;2.80;99.90;;;;;;7392831;19;20611;-87
2023/02/04 00:35:36;;;;;;;2.50;2.30;;;2.80;99.90;;;;;;7389247;19;20740;-90
2023/02/04 00:38:02;;;;;;;2.55;2.33;;;2.80;99.90;;;;;;7391946;19;20301;-83
2023/02/04 00:40:27;;;;;;;2.20;2.10;;;2.80;99.90;;;;;;7392854;19;20355;-90
2023/02/04 00:42:53;;;;;;;3.20;2.28;;;2.80;99.90;;;;;;7390808;19;20376;-87
2023/02/04 00:45:19;;;;;;;2.30;2.10;;;2.80;99.90;;;;;;7390397;19;20319;-88
2023/02/04 00:47:44;;;;;;;2.58;2.25;;;2.80;99.90;;;;;;7388690;19;20353;-78
2023/02/04 00:50:10;;;;;;;2.57;2.33;;;2.80;99.90;;;;;;7390227;19;20316;-90
2023/02/04 00:52:36;;;;;;;2.90;2.33;;;2.80;99.90;;;;;;7385956;19;21214;-89
2023/02/04 00:55:01;;;;;;;2.47;2.28;;;2.80;99.90;;;;;;7389708;19;20315;-90
2023/02/04 00:57:27;;;;;;;2.80;2.30;;;2.80;99.90;;;;;;7391136;19;20347;-89
2023/02/04 00:59:53;;;;;;;3.20;2.33;;;2.80;99.90;;;;;;7393138;19;20329;-85
2023/02/04 01:02:18;;;;;;;2.90;2.30;;;2.80;99.90;;;;;;7390659;19;20427;-88
2023/02/04 01:04:44;;;;;;;3.20;2.23;;;2.80;99.90;;;;;;7389514;19;20416;-81
2023/02/04 01:07:10;;;;;;;2.40;2.20;;;2.70;99.90;;;;;;7388391;19;20440;-84
2023/02/04 01:09:35;;;;;;;4.07;2.07;;;2.70;99.90;;;;;;7388285;19;20340;-80
2023/02/04 01:12:02;;;;;;;2.30;2.10;;;2.60;99.90;;;;;;7388755;19;20420;-82
2023/02/04 01:14:27;;;;;;;2.30;2.05;;;2.60;99.90;;;;;;7387632;19;20332;-85
2023/02/04 01:16:53;;;;;;;2.73;1.87;;;2.50;99.90;;;;;;7388643;19;20330;-85
2023/02/04 01:19:19;;;;;;;3.20;1.80;;;2.50;99.90;;;;;;7387169;19;20481;-90
2023/02/04 01:21:45;;;;;;;1.80;1.70;;;2.50;99.90;;;;;;7387485;19;20386;-88
2023/02/04 01:24:11;;;;;;;2.27;2.00;;;2.40;99.90;;;;;;7358577;19;20328;-80
2023/02/04 01:26:57;;;;;;;2.35;2.00;;;2.40;99.90;;;;;;7388105;19;20332;-88
2023/02/04 01:29:22;;;;;;;2.10;1.90;;;2.30;99.90;;;;;;7386004;19;20308;-80
2023/02/04 01:31:49;;;;;;;2.13;1.80;;;2.30;99.90;;;;;;7383770;19;20376;-89
2023/02/04 01:34:15;;;;;;;2.30;1.90;;;2.30;99.90;;;;;;7385700;19;20324;-83
2023/02/04 01:36:43;;;;;;;2.47;1.92;;;2.30;99.90;;;;;;7388150;19;20351;-77
2023/02/04 01:39:08;;;;;;;1.95;1.80;;;2.20;99.90;;;;;;7383574;19;20348;-80
2023/02/04 01:41:34;;;;;;;2.03;1.92;;;2.30;99.90;;;;;;7379745;19;21044;-80
2023/02/04 01:44:00;;;;;;;1.60;1.50;;;2.30;99.90;;;;;;7377708;19;20348;-79
2023/02/04 01:46:25;;;;;;;3.70;1.90;;;2.30;99.90;;;;;;7383179;19;20897;-88
2023/02/04 01:48:51;;;;;;;1.70;1.60;;;2.20;99.90;;;;;;7383191;19;20423;-80
2023/02/04 01:51:25;;;;;;;2.50;1.73;;;2.20;99.90;;;;;;7382150;19;20605;-80
2023/02/04 01:53:51;;;;;;;2.22;1.70;;;2.20;99.90;;;;;;7378527;19;20321;-77
2023/02/04 01:56:19;;;;;;;1.98;1.58;;;2.20;99.90;;;;;;7381411;19;20353;-77
2023/02/04 01:58:45;;;;;;;1.60;1.50;;;2.30;99.90;;;;;;7385944;19;20341;-83
2023/02/04 02:01:12;;;;;;;1.83;1.70;;;2.20;99.90;;;;;;7380816;19;20320;-84
2023/02/04 02:03:38;;;;;;;1.73;1.63;;;2.20;99.90;;;;;;7382694;19;20366;-77
2023/02/04 02:06:04;;;;;;;1.80;1.70;;;2.20;99.90;;;;;;7384011;19;20324;-81
2023/02/04 02:08:30;;;;;;;1.70;1.60;;;2.20;99.90;;;;;;7378890;19;20366;-82
2023/02/04 02:10:56;;;;;;;1.90;1.80;;;2.20;99.90;;;;;;7381688;19;20309;-77
2023/02/04 02:13:21;;;;;;;1.90;1.70;;;2.20;99.90;;;;;;7377756;19;20360;-75
2023/02/04 02:15:47;;;;;;;1.80;1.70;;;2.20;99.90;;;;;;7378823;19;21116;-79
2023/02/04 02:18:13;;;;;;;1.98;1.80;;;2.20;99.90;;;;;;7376296;19;20332;-77
2023/02/04 02:20:39;;;;;;;1.90;1.70;;;2.20;99.90;;;;;;7381027;19;20367;-82
2023/02/04 02:23:24;;;;;;;2.38;1.60;;;2.20;99.90;;;;;;7376625;19;20349;-80
2023/02/04 02:25:50;;;;;;;1.70;1.60;;;2.20;99.90;;;;;;7381663;19;20448;-77
2023/02/04 02:28:18;;;;;;;1.65;1.55;;;2.20;99.90;;;;;;7377379;19;20320;-79
2023/02/04 02:30:44;;;;;;;2.10;1.73;;;2.20;99.90;;;;;;7378171;19;20357;-86
2023/02/04 02:33:14;;;;;;;1.73;1.63;;;2.20;99.90;;;;;;7381034;19;20331;-78
2023/02/04 02:35:42;;;;;;;1.63;1.53;;;2.20;99.90;;;;;;7379224;19;20348;-84
2023/02/04 02:38:10;;;;;;;1.65;1.55;;;2.20;99.90;;;;;;7376189;19;20337;-76
2023/02/04 02:40:36;;;;;;;1.70;1.60;;;2.10;99.90;;;;;;7376984;19;20364;-82
2023/02/04 02:43:02;;;;;;;1.60;1.50;;;2.00;99.90;;;;;;7379454;19;20327;-79
2023/02/04 02:45:28;;;;;;;1.65;1.55;;;1.90;99.90;;;;;;7379551;19;20348;-81
2023/02/04 02:47:56;;;;;;;2.47;1.50;;;1.90;99.90;;;;;;7376933;19;20361;-75
2023/02/04 02:50:23;;;;;;;1.85;1.50;;;1.80;99.90;;;;;;7376379;19;20352;-85
2023/02/04 02:52:49;;;;;;;1.45;1.35;;;1.90;99.90;;;;;;7382794;19;20363;-88
2023/02/04 02:55:16;;;;;;;1.73;1.30;;;1.80;99.90;;;;;;7383966;19;20340;-86
2023/02/04 02:57:45;;;;;;;1.50;1.40;;;1.80;99.90;;;;;;7382592;19;21063;-82
2023/02/04 03:00:24;;;;;;;1.70;1.60;;;1.80;99.90;;;;;;7381169;19;21235;-85
2023/02/04 03:03:11;;;;;;;2.08;1.40;;;1.80;99.90;;;;;;7385263;19;20853;-89
2023/02/04 03:05:43;;;;;;;1.40;1.30;;;1.80;99.90;;;;;;7280755;19;2004399;-82
2023/02/04 03:08:11;;;;;;;1.58;1.42;;;1.80;99.90;;;;;;7381253;19;20392;-87
2023/02/04 03:10:36;;;;;;;1.50;1.40;;;1.80;99.90;;;;;;7383086;19;20356;-81
2023/02/04 03:13:02;;;;;;;2.00;1.30;;;1.80;99.90;;;;;;7382403;19;20336;-79
2023/02/04 03:15:28;;;;;;;1.30;1.20;;;1.80;99.90;;;;;;7379495;19;20362;-83
2023/02/04 03:17:55;;;;;;;1.20;1.20;;;1.80;99.90;;;;;;7380379;19;20316;-85
2023/02/04 03:20:22;;;;;;;1.30;1.20;;;1.80;99.90;;;;;;7380918;19;20313;-80
2023/02/04 03:22:48;;;;;;;1.70;1.60;;;1.80;99.90;;;;;;7375588;19;20353;-84
2023/02/04 03:25:14;;;;;;;1.10;1.10;;;1.80;99.90;;;;;;7380510;19;20353;-85
2023/02/04 03:27:39;;;;;;;1.20;1.20;;;1.80;99.90;;;;;;7386221;19;20366;-87
2023/02/04 03:30:06;;;;;;;1.33;1.23;;;1.80;99.90;;;;;;7387998;19;20320;-81
2023/02/04 03:32:31;;;;;;;1.55;1.40;;;1.80;99.90;;;;;;7386231;19;20358;-86
2023/02/04 03:34:57;;;;;;;1.93;1.30;;;1.80;99.90;;;;;;7387191;19;20317;-77
2023/02/04 03:37:23;;;;;;;1.30;1.20;;;1.80;99.90;;;;;;7388214;19;20349;-87
2023/02/04 03:39:48;;;;;;;1.50;1.20;;;1.70;99.90;;;;;;7388219;19;20349;-84
2023/02/04 03:42:14;;;;;;;1.05;1.05;;;1.70;99.90;;;;;;7386749;19;20344;-89
2023/02/04 03:44:39;;;;;;;1.23;1.13;;;1.60;99.90;;;;;;7388142;19;20351;-87
2023/02/04 03:47:05;;;;;;;1.10;1.10;;;1.60;99.90;;;;;;7386350;19;20854;-86
2023/02/04 03:49:31;;;;;;;1.30;1.20;;;1.40;99.90;;;;;;7386781;19;20753;-83
2023/02/04 03:51:56;;;;;;;1.02;1.02;;;1.40;99.90;;;;;;7384049;19;20317;-78
2023/02/04 03:54:22;;;;;;;1.25;1.15;;;1.40;99.90;;;;;;7385641;19;20309;-77
2023/02/04 03:56:49;;;;;;;1.30;1.20;;;1.20;99.90;;;;;;7387970;19;20353;-80
2023/02/04 03:59:15;;;;;;;1.63;1.30;;;1.20;99.90;;;;;;7391622;19;20922;-87
2023/02/04 04:01:40;;;;;;;1.40;1.30;;;1.10;99.90;;;;;;7384605;19;20337;-81
2023/02/04 04:04:06;;;;;;;1.30;1.20;;;1.10;99.90;;;;;;7385376;19;20337;-87
2023/02/04 04:06:32;;;;;;;2.15;1.33;;;1.10;99.90;;;;;;7386209;19;20341;-89
2023/02/04 04:08:57;;;;;;;1.40;1.30;;;1.00;99.90;;;;;;7386754;19;20906;-88
2023/02/04 04:11:23;;;;;;;1.55;1.17;;;1.00;99.90;;;;;;7386180;19;20320;-85
2023/02/04 04:13:48;;;;;;;1.13;1.02;;;1.00;99.90;;;;;;7385483;19;20352;-85
2023/02/04 04:16:14;;;;;;;1.40;1.20;;;0.90;99.90;;;;;;7385532;19;20427;-78
2023/02/04 04:18:40;;;;;;;1.48;1.20;;;0.80;99.90;;;;;;7387802;19;20337;-80
2023/02/04 04:21:05;;;;;;;1.17;1.13;;;0.80;99.90;;;;;;7387067;19;20333;-92
2023/02/04 04:23:31;;;;;;;1.10;1.10;;;0.80;99.90;;;;;;7385951;19;20357;-81
2023/02/04 04:25:56;;;;;;;1.20;1.10;;;0.80;99.90;;;;;;7385335;19;20789;-79
2023/02/04 04:28:22;;;;;;;1.40;1.30;;;0.70;99.90;;;;;;7380884;19;20305;-76
2023/02/04 04:30:48;;;;;;;1.63;1.30;;;0.70;99.90;;;;;;7383727;19;20377;-91
2023/02/04 04:33:13;;;;;;;1.20;1.10;;;0.60;99.90;;;;;;7387197;19;20333;-92
2023/02/04 04:35:39;;;;;;;1.30;1.20;;;0.60;99.90;;;;;;7386609;19;20388;-88
2023/02/04 04:38:04;;;;;;;1.02;1.00;;;0.50;99.90;;;;;;7380521;19;20362;-78
2023/02/04 04:40:30;;;;;;;1.10;1.10;;;0.50;99.90;;;;;;7382383;19;20356;-81
2023/02/04 04:42:56;;;;;;;1.20;1.10;;;0.50;99.90;;;;;;7385754;19;20336;-90
2023/02/04 04:45:21;;;;;;;1.30;1.20;;;0.50;99.90;;;;;;7385408;19;20735;-91
2023/02/04 04:47:47;;;;;;;1.10;1.10;;;0.40;99.90;;;;;;7386954;19;20373;-79
2023/02/04 04:50:12;;;;;;;1.13;1.10;;;0.40;99.90;;;;;;7385676;19;20421;-88
2023/02/04 04:52:38;;;;;;;1.27;1.10;;;0.30;99.90;;;;;;7385456;19;20669;-89
2023/02/04 04:55:04;;;;;;;1.00;1.00;;;0.30;99.90;;;;;;7385129;19;20671;-89
2023/02/04 04:57:31;;;;;;;1.20;1.10;;;0.30;99.90;;;;;;7386352;19;20344;-87
2023/02/04 04:59:56;;;;;;;1.20;1.20;;;0.30;99.90;;;;;;7387628;19;20309;-88
2023/02/04 05:02:22;;;;;;;1.17;1.10;;;0.20;99.90;;;;;;7383870;19;20320;-88
2023/02/04 05:04:48;;;;;;;1.23;1.15;;;0.20;99.90;;;;;;7385171;19;20341;-84
2023/02/04 05:07:13;;;;;;;0.90;0.90;;;0.20;99.90;;;;;;7385199;19;20333;-84
2023/02/04 05:09:39;;;;;;;1.60;1.20;;;0.20;99.90;;;;;;7382597;19;20338;-86
2023/02/04 05:12:06;;;;;;;2.50;1.33;;;0.10;99.90;;;;;;7382405;19;20309;-88
2023/02/04 05:14:31;;;;;;;1.30;1.20;;;0.00;99.90;;;;;;7382453;19;20753;-79
2023/02/04 05:16:57;;;;;;;0.98;0.98;;;0.00;99.90;;;;;;7387566;19;20338;-84
2023/02/04 05:19:23;;;;;;;1.00;1.00;;;0.00;99.90;;;;;;7387648;19;20321;-83
2023/02/04 05:21:48;;;;;;;0.90;0.90;;;0.00;99.90;;;;;;7387909;19;20361;-88
2023/02/04 05:24:14;;;;;;;1.55;1.23;;;-0.10;99.90;;;;;;7380885;19;20364;-78
2023/02/04 05:26:39;;;;;;;1.20;1.10;;;-0.20;99.90;;;;;;7384201;19;20364;-82
2023/02/04 05:29:05;;;;;;;1.33;1.23;;;-0.20;99.90;;;;;;7384463;19;20345;-81
2023/02/04 05:31:31;;;;;;;2.20;1.20;;;-0.20;99.90;;;;;;7381726;19;20333;-81
2023/02/04 05:33:56;;;;;;;1.10;1.10;;;-0.20;99.90;;;;;;7379412;19;20868;-84
2023/02/04 05:36:22;;;;;;;1.50;1.40;;;-0.20;99.90;;;;;;7382324;19;20317;-82
2023/02/04 05:38:48;;;;;;;1.17;1.17;;;-0.30;99.90;;;;;;7381789;19;20349;-79
2023/02/04 05:41:13;;;;;;;2.15;1.40;;;-0.30;99.90;;;;;;7381492;19;20858;-74
2023/02/04 05:43:39;;;;;;;1.17;1.10;;;-0.40;99.90;;;;;;7377699;19;20913;-80
2023/02/04 05:46:05;;;;;;;2.60;1.30;;;-0.40;99.90;;;;;;7380697;19;20328;-79
2023/02/04 05:48:30;;;;;;;1.60;1.20;;;-0.40;99.90;;;;;;7377510;19;20355;-78
2023/02/04 05:50:56;;;;;;;1.50;1.40;;;-0.40;99.90;;;;;;7381197;19;20332;-77
2023/02/04 05:53:22;;;;;;;1.30;1.30;;;-0.40;99.90;;;;;;7380366;19;20317;-76
2023/02/04 05:55:47;;;;;;;1.60;1.50;;;-0.50;99.90;;;;;;7379257;19;20349;-85
2023/02/04 05:58:13;;;;;;;2.23;1.73;;;-0.50;99.90;;;;;;7377118;19;20738;-74
2023/02/04 06:00:39;;;;;;;2.08;1.50;;;-0.50;99.90;;;;;;7379786;19;20360;-77
2023/02/04 06:03:05;;;;;;;2.37;1.70;;;-0.50;99.90;;;;;;7376527;19;21014;-77
2023/02/04 06:05:31;;;;;;;1.70;1.42;;;-0.50;99.90;;;;;;7375164;19;20340;-78
2023/02/04 06:07:57;;;;;;;2.25;1.60;;;-0.50;99.90;;;;;;7375999;19;21251;-83
2023/02/04 06:10:22;;;;;;;68.90;39.83;;;-0.50;99.90;;;;;;7376012;19;20342;-78
2023/02/04 06:15:15;;;;;;;4.05;2.10;;;-0.50;99.90;;;;;;7370148;19;21190;-78
2023/02/04 06:17:41;;;;;;;2.50;2.10;;;-0.50;99.90;;;;;;7371298;19;20436;-78
2023/02/04 06:20:08;;;;;;;3.23;2.07;;;-0.60;99.90;;;;;;7376064;19;20379;-81
2023/02/04 06:22:33;;;;;;;6.53;3.03;;;-0.60;99.90;;;;;;7369620;19;20910;-82
2023/02/04 06:24:59;;;;;;;7.53;3.10;;;-0.60;99.90;;;;;;7375758;19;20342;-84
2023/02/04 06:27:26;;;;;;;2.03;1.70;;;-0.60;99.90;;;;;;7376690;19;20928;-81
2023/02/04 06:29:52;;;;;;;3.92;2.90;;;-0.60;99.90;;;;;;7379070;19;20313;-80
2023/02/04 06:32:18;;;;;;;4.75;1.88;;;-0.60;99.90;;;;;;7370114;19;20694;-83
2023/02/04 06:34:44;;;;;;;2.80;1.90;;;-0.50;99.90;;;;;;7373398;19;20728;-80
2023/02/04 06:37:09;;;;;;;1.73;1.60;;;-0.50;99.90;;;;;;7370841;19;20353;-81
2023/02/04 06:39:35;;;;;;;3.10;1.53;;;-0.60;99.90;;;;;;7376617;19;20441;-79
2023/02/04 06:42:01;;;;;;;1.55;1.45;;;-0.60;99.90;;;;;;7376591;19;20839;-78
2023/02/04 06:44:26;;;;;;;1.63;1.53;;;-0.70;99.90;;;;;;7379417;19;20320;-81
2023/02/04 06:46:52;;;;;;;2.10;1.50;;;-0.60;99.90;;;;;;7378295;19;20332;-88
2023/02/04 06:49:18;;;;;;;1.38;1.27;;;-0.70;99.90;;;;;;7383932;19;20324;-92
2023/02/04 06:51:43;;;;;;;1.73;1.40;;;-0.60;99.90;;;;;;7381276;19;20432;-85
2023/02/04 06:54:09;;;;;;;1.73;1.50;;;-0.70;99.90;;;;;;7376793;19;20356;-82
2023/02/04 06:56:36;;;;;;;3.42;2.30;;;-0.70;99.90;;;;;;7383160;19;20405;-78
2023/02/04 06:59:02;;;;;;;2.42;1.80;;;-0.70;99.90;;;;;;7383218;19;20321;-86
2023/02/04 07:01:27;;;;;;;1.70;1.60;;;-0.70;99.90;;;;;;7384081;19;20365;-88
2023/02/04 07:03:53;;;;;;;1.77;1.67;;;-0.70;99.90;;;;;;7384968;19;20356;-81
2023/02/04 07:06:19;;;;;;;1.70;1.60;;;-0.70;99.90;;;;;;7383899;19;20325;-81
2023/02/04 07:08:46;;;;;;;2.45;1.70;;;-0.70;99.90;;;;;;7380399;19;20356;-79
2023/02/04 07:11:11;;;;;;;1.65;1.55;;;-0.70;99.90;;;;;;7389002;19;20336;-82
2023/02/04 07:13:37;;;;;;;1.90;1.80;;;-0.70;99.90;;;;;;7391112;19;20344;-81
2023/02/04 07:16:03;;;;;;;1.90;1.80;;;-0.70;99.90;;;;;;7390962;19;20340;-83
2023/02/04 07:18:28;;;;;;;2.67;1.83;;;-0.70;99.90;;;;;;7383231;19;20883;-77
2023/02/04 07:20:54;;;;;;;1.97;1.77;;;-0.70;99.90;;;;;;7385487;19;20305;-79
2023/02/04 07:23:20;;;;;;;1.98;1.50;;;-0.70;99.90;;;;;;7382556;19;20364;-80
2023/02/04 07:25:45;;;;;;;3.30;1.57;;;-0.70;99.90;;;;;;7384743;19;20711;-80
2023/02/04 07:28:12;;;;;;;1.60;1.50;;;-0.70;99.90;;;;;;7384178;19;20321;-80
2023/02/04 07:30:37;;;;;;;1.70;1.60;;;-0.70;99.90;;;;;;7383933;19;20428;-80
2023/02/04 07:33:03;;;;;;;2.70;1.57;;;-0.70;99.90;;;;;;7386442;19;20732;-80
2023/02/04 07:35:29;;;;;;;1.65;1.52;;;-0.70;99.90;;;;;;7385395;19;20347;-82
2023/02/04 07:37:54;;;;;;;2.73;1.50;;;-0.70;99.90;;;;;;7384811;19;20329;-80
2023/02/04 07:40:20;;;;;;;2.33;2.13;;;-0.60;99.90;;;;;;7385608;19;20316;-79
2023/02/04 07:42:46;;;;;;;3.83;3.00;;;-0.70;99.90;;;;;;7386447;19;20975;-81
2023/02/04 07:45:16;;;;;;;4.07;2.20;;;-0.60;99.90;;;;;;7384995;19;20345;-84
2023/02/04 07:47:41;;;;;;;2.05;1.65;;;-0.60;99.90;;;;;;7384758;19;21230;-80
2023/02/04 07:50:07;;;;;;;2.50;1.90;;;-0.60;99.90;;;;;;7382385;19;20320;-79
2023/02/04 07:52:33;;;;;;;3.80;2.00;;;-0.60;99.90;;;;;;7376090;19;20360;-77
2023/02/04 07:54:59;;;;;;;1.83;1.70;;;-0.50;99.90;;;;;;7375356;19;20352;-79
2023/02/04 07:57:24;;;;;;;2.50;1.73;;;-0.50;99.90;;;;;;7377567;19;20368;-80
2023/02/04 07:59:50;;;;;;;1.65;1.45;;;-0.40;99.90;;;;;;7384086;19;20874;-82
2023/02/04 08:02:16;;;;;;;3.28;1.67;;;-0.40;99.90;;;;;;7346761;19;20355;-81
2023/02/04 08:04:42;;;;;;;2.63;1.90;;;-0.40;99.90;;;;;;7367838;19;20340;-84
2023/02/04 08:07:07;;;;;;;2.20;1.60;;;-0.40;99.90;;;;;;7377495;19;21553;-77
2023/02/04 08:09:33;;;;;;;3.15;1.70;;;-0.30;99.90;;;;;;7379349;19;21044;-83
2023/02/04 08:11:58;;;;;;;2.30;1.70;;;-0.20;99.90;;;;;;7383453;19;20324;-79
2023/02/04 08:14:24;;;;;;;2.67;1.50;;;-0.20;99.90;;;;;;7383220;19;20731;-82
2023/02/04 08:16:50;;;;;;;2.00;1.73;;;-0.10;99.90;;;;;;7383568;19;20333;-83
2023/02/04 08:19:19;;;;;;;3.43;1.73;;;-0.10;99.90;;;;;;7382484;19;20376;-83
2023/02/04 08:21:45;;;;;;;2.20;1.80;;;0.00;99.90;;;;;;7384435;19;20321;-82
2023/02/04 08:24:11;;;;;;;3.17;1.70;;;0.10;99.90;;;;;;7382752;19;20316;-81
2023/02/04 08:26:38;;;;;;;2.00;1.80;;;0.10;99.90;;;;;;7386490;19;21237;-86
2023/02/04 08:29:03;;;;;;;1.88;1.48;;;0.20;99.90;;;;;;7384786;19;20329;-83
2023/02/04 08:31:29;;;;;;;4.40;1.80;;;0.20;99.90;;;;;;7383410;19;20849;-85
2023/02/04 08:33:54;;;;;;;2.28;1.60;;;0.20;99.90;;;;;;7381500;19;20690;-82
2023/02/04 08:36:20;;;;;;;3.20;1.87;;;0.20;99.90;;;;;;7386371;19;20320;-79
2023/02/04 08:38:46;;;;;;;2.05;1.73;;;0.30;99.90;;;;;;7383680;19;20341;-91
2023/02/04 08:41:11;;;;;;;2.80;1.70;;;0.40;99.90;;;;;;7386959;19;20867;-88
2023/02/04 08:43:37;;;;;;;1.80;1.45;;;0.40;99.90;;;;;;7385324;19;20325;-82
2023/02/04 08:46:03;;;;;;;2.17;1.87;;;0.50;99.90;;;;;;7385475;19;20353;-81
2023/02/04 08:48:28;;;;;;;2.40;1.73;;;0.50;99.90;;;;;;7382006;19;20344;-82
2023/02/04 08:50:54;;;;;;;1.90;1.70;;;0.60;99.90;;;;;;7382243;19;20336;-78
2023/02/04 08:53:19;;;;;;;1.73;1.52;;;0.60;99.90;;;;;;7380621;19;20324;-88
2023/02/04 08:55:45;;;;;;;3.17;1.70;;;0.70;99.90;;;;;;7384857;19;20315;-81
2023/02/04 08:58:11;;;;;;;3.55;1.92;;;0.70;99.90;;;;;;7383686;19;20967;-81
2023/02/04 09:00:37;;;;;;;2.50;1.70;;;0.80;99.90;;;;;;7385735;19;20308;-84
2023/02/04 09:03:03;;;;;;;1.63;1.50;;;0.90;99.90;;;;;;7384442;19;20341;-84
2023/02/04 09:05:29;;;;;;;2.25;2.05;;;1.00;99.90;;;;;;7386119;19;20348;-81
2023/02/04 09:07:54;;;;;;;2.23;1.70;;;1.10;99.90;;;;;;7381309;19;20332;-81
2023/02/04 09:10:20;;;;;;;2.58;1.70;;;1.10;99.90;;;;;;7380650;19;20436;-78
2023/02/04 09:12:45;;;;;;;4.70;1.90;;;1.30;99.90;;;;;;7381740;19;20317;-85
2023/02/04 09:15:11;;;;;;;2.05;1.65;;;1.30;99.90;;;;;;7385396;19;20329;-86
2023/02/04 09:17:37;;;;;;;2.00;1.70;;;1.50;99.90;;;;;;7381359;19;20379;-80
2023/02/04 09:20:04;;;;;;;2.20;1.50;;;1.50;99.90;;;;;;7384026;19;20313;-85
2023/02/04 09:22:30;;;;;;;2.33;1.85;;;1.50;99.90;;;;;;7381568;19;20341;-85
2023/02/04 09:24:55;;;;;;;2.88;1.73;;;1.50;99.90;;;;;;7382873;19;20908;-84
2023/02/04 09:27:21;;;;;;;2.20;1.97;;;1.70;99.90;;;;;;7381313;19;20340;-83
2023/02/04 09:29:46;;;;;;;2.20;1.52;;;1.70;99.90;;;;;;7385009;19;20321;-81
2023/02/04 09:32:12;;;;;;;2.00;1.70;;;1.80;99.90;;;;;;7382302;19;20346;-90
2023/02/04 09:34:37;;;;;;;1.55;1.45;;;1.90;99.90;;;;;;7382264;19;20344;-82
2023/02/04 09:37:03;;;;;;;2.47;1.60;;;2.00;99.90;;;;;;7379602;19;20407;-78
2023/02/04 09:39:29;;;;;;;1.90;1.50;;;2.10;99.90;;;;;;7383447;19;20329;-81
2023/02/04 09:41:55;;;;;;;2.13;1.50;;;2.20;99.90;;;;;;7379645;19;20344;-79
2023/02/04 09:44:22;;;;;;;2.10;1.70;;;2.20;99.90;;;;;;7378363;19;20328;-78
2023/02/04 09:46:51;;;;;;;2.13;1.45;;;2.30;99.90;;;;;;7379350;19;20403;-85
2023/02/04 09:49:16;;;;;;;1.48;1.38;;;2.30;99.90;;;;;;7383857;19;20333;-77
2023/02/04 09:51:42;;;;;;;1.43;1.30;;;2.20;99.90;;;;;;7379175;19;20399;-82
2023/02/04 09:54:12;;;;;;;1.52;1.27;;;2.20;99.90;;;;;;7382526;19;20729;-83
2023/02/04 09:56:38;;;;;;;1.50;1.40;;;2.20;99.90;;;;;;7385244;19;20368;-82
2023/02/04 09:59:15;;;;;;;1.73;1.63;;;2.20;99.90;;;;;;7386037;19;20309;-80
2023/02/04 10:01:41;;;;;;;2.90;1.60;;;2.20;99.90;;;;;;7376461;19;20865;-80
2023/02/04 10:04:13;;;;;;;2.83;1.90;;;2.20;99.90;;;;;;7366525;19;20317;-81
2023/02/04 10:06:39;;;;;;;2.07;1.67;;;2.40;99.90;;;;;;7377828;19;20313;-82
2023/02/04 10:09:05;;;;;;;1.60;1.50;;;2.50;99.90;;;;;;7383465;19;20879;-80
2023/02/04 10:11:33;;;;;;;1.80;1.57;;;2.60;99.90;;;;;;7382100;19;20420;-85
2023/02/04 10:13:58;;;;;;;3.42;2.30;;;2.70;99.90;;;;;;7383603;19;20324;-87
2023/02/04 10:16:28;;;;;;;2.60;1.63;;;2.70;99.90;;;;;;7382553;19;20325;-81
2023/02/04 10:19:02;;;;;;;2.07;1.47;;;2.80;99.90;;;;;;7379547;19;20332;-79
2023/02/04 10:21:30;;;;;;;3.10;1.60;;;2.80;99.90;;;;;;7357475;19;20416;-84
2023/02/04 10:24:00;;;;;;;1.40;1.30;;;3.00;99.90;;;;;;7383135;19;20353;-83
2023/02/04 10:26:30;;;;;;;1.67;1.42;;;3.10;99.90;;;;;;7386358;19;20312;-89
2023/02/04 10:29:02;;;;;;;2.43;1.50;;;3.10;99.90;;;;;;7388792;19;20325;-89
2023/02/04 10:31:29;;;;;;;1.33;1.20;;;3.00;99.90;;;;;;7389133;19;20361;-88
2023/02/04 10:34:12;;;;;;;3.70;1.40;;;3.00;99.90;;;;;;7387321;19;20321;-90
2023/02/04 10:36:38;;;;;;;2.20;1.40;;;3.00;99.90;;;;;;7381672;19;20304;-93
2023/02/04 10:39:15;;;;;;;1.92;1.55;;;3.10;99.90;;;;;;7390886;19;20329;-93
2023/02/04 10:41:51;;;;;;;1.98;1.40;;;3.10;99.90;;;;;;7395667;19;20312;-92
2023/02/04 10:44:20;;;;;;;4.05;2.95;;;3.00;99.90;;;;;;7296777;19;2004332;-92
2023/02/04 10:46:46;;;;;;;1.57;1.37;;;3.10;99.90;;;;;;7395465;19;20317;-89
2023/02/04 10:49:22;;;;;;;1.85;1.30;;;3.00;99.90;;;;;;7389679;19;20752;-79
2023/02/04 10:51:48;;;;;;;1.40;1.30;;;3.10;99.90;;;;;;7286175;19;2004380;-84
2023/02/04 10:54:31;;;;;;;2.97;1.50;;;2.90;99.90;;;;;;7384834;19;20384;-87
2023/02/04 10:57:20;;;;;;;1.70;1.55;;;3.00;99.90;;;;;;7290223;19;2004608;-91
2023/02/04 10:59:47;;;;;;;1.77;1.40;;;3.00;99.90;;;;;;7287872;19;2004526;-82
2023/02/04 11:02:31;;;;;;;1.55;1.20;;;3.20;99.90;;;;;;7386371;19;20355;-85
2023/02/04 11:04:58;;;;;;;1.40;1.30;;;3.60;99.90;;;;;;7286789;19;2004373;-92
2023/02/04 11:07:24;;;;;;;1.10;1.10;;;3.60;99.90;;;;;;7393315;19;20324;-87
2023/02/04 11:09:51;;;;;;;2.45;1.48;;;3.50;99.90;;;;;;7388009;19;20320;-85
2023/02/04 11:12:35;;;;;;;1.27;1.17;;;3.20;99.90;;;;;;7379856;19;20317;-79
2023/02/04 11:15:01;;;;;;;1.20;1.10;;;3.30;99.90;;;;;;7385535;19;20347;-91
2023/02/04 11:17:30;;;;;;;1.53;1.40;;;3.30;99.90;;;;;;7392139;19;20348;-90
2023/02/04 11:19:56;;;;;;;1.60;1.10;;;3.30;99.90;;;;;;7394082;19;20316;-84
2023/02/04 11:22:24;;;;;;;2.17;1.57;;;3.20;99.90;;;;;;7386422;19;20313;-86
2023/02/04 11:24:50;;;;;;;1.50;1.40;;;3.20;99.90;;;;;;7386793;19;20411;-93
2023/02/04 11:27:35;;;;;;;1.50;1.40;;;3.20;99.90;;;;;;7386620;19;20361;-89
2023/02/04 11:30:25;;;;;;;2.40;1.38;;;3.20;99.90;;;;;;7387718;19;20324;-83
2023/02/04 11:33:01;;;;;;;1.40;1.30;;;3.30;99.90;;;;;;7180154;19;2004436;-88
2023/02/04 11:35:27;;;;;;;1.77;1.23;;;3.40;99.90;;;;;;7381692;19;20371;-84
2023/02/04 11:37:53;;;;;;;2.00;1.45;;;3.30;99.90;;;;;;7383289;19;20325;-86
2023/02/04 11:40:22;;;;;;;1.73;1.60;;;3.40;99.90;;;;;;7387335;19;20309;-81
2023/02/04 11:42:48;;;;;;;2.08;1.40;;;3.40;99.90;;;;;;7384291;19;20341;-85
2023/02/04 11:45:18;;;;;;;1.77;1.13;;;3.30;99.90;;;;;;7379339;19;20380;-84
2023/02/04 11:47:44;;;;;;;1.95;1.40;;;3.40;99.90;;;;;;7382815;19;20453;-86
2023/02/04 11:50:20;;;;;;;1.35;1.25;;;3.40;99.90;;;;;;7386083;19;20312;-84
2023/02/04 11:52:46;;;;;;;1.33;1.23;;;3.50;99.90;;;;;;7288750;19;2004239;-85
2023/02/04 11:55:12;;;;;;;1.17;1.00;;;3.50;99.90;;;;;;7390095;19;20348;-86
2023/02/04 11:57:41;;;;;;;1.83;1.30;;;3.40;99.90;;;;;;7386942;19;20317;-85
2023/02/04 12:00:14;;;;;;;5.05;1.67;;;3.40;99.90;;;;;;7389037;19;20320;-77
2023/02/04 12:02:45;;;;;;;2.03;1.38;;;3.60;99.90;;;;;;7388665;19;20375;-83
2023/02/04 12:05:15;;;;;;;1.20;1.10;;;4.10;99.90;;;;;;7390526;19;20339;-80
2023/02/04 12:07:41;;;;;;;1.50;1.20;;;4.50;99.90;;;;;;7389002;19;20313;-82
2023/02/04 12:10:16;;;;;;;1.35;1.08;;;4.70;99.90;;;;;;7393134;19;20322;-90
2023/02/04 12:12:44;;;;;;;2.92;1.20;;;4.70;99.90;;;;;;7390947;19;20321;-89
2023/02/04 12:15:15;;;;;;;1.13;1.10;;;4.90;99.90;;;;;;7391644;19;20313;-85
2023/02/04 12:17:43;;;;;;;2.38;1.00;;;5.20;99.90;;;;;;7392180;19;20788;-84
2023/02/04 12:20:13;;;;;;;1.17;1.10;;;5.40;99.90;;;;;;7392881;19;20319;-78
2023/02/04 12:22:39;;;;;;;1.13;1.00;;;5.60;99.90;;;;;;7388545;19;20307;-76
2023/02/04 12:25:05;;;;;;;1.70;1.10;;;5.80;99.90;;;;;;7389594;19;20336;-78
2023/02/04 12:27:31;;;;;;;1.23;1.13;;;5.70;99.90;;;;;;7390561;19;20829;-83
2023/02/04 12:29:56;;;;;;;1.30;1.20;;;4.90;99.90;;;;;;7392161;19;20320;-82
2023/02/04 12:32:22;;;;;;;1.77;1.02;;;5.00;99.90;;;;;;7387570;19;20313;-80
2023/02/04 12:34:48;;;;;;;1.00;1.00;;;4.80;99.90;;;;;;7389664;19;20346;-91
2023/02/04 12:37:14;;;;;;;1.20;1.10;;;4.40;99.90;;;;;;7388595;19;20308;-84
2023/02/04 12:39:40;;;;;;;1.10;1.08;;;4.30;99.90;;;;;;7385964;19;20321;-83
2023/02/04 12:42:06;;;;;;;1.30;1.20;;;4.30;99.90;;;;;;7385669;19;20333;-85
2023/02/04 12:44:34;;;;;;;1.30;1.20;;;4.10;99.90;;;;;;7385385;19;20372;-82
2023/02/04 12:46:59;;;;;;;1.35;1.10;;;4.10;99.90;;;;;;7385849;19;20366;-80
2023/02/04 12:49:25;;;;;;;2.30;1.40;;;4.10;99.90;;;;;;7384037;19;20331;-82
2023/02/04 12:51:51;;;;;;;2.27;1.43;;;4.50;99.90;;;;;;7388277;19;20336;-81
2023/02/04 12:54:16;;;;;;;1.00;1.00;;;4.60;99.90;;;;;;7385555;19;20344;-85
2023/02/04 12:56:44;;;;;;;1.67;1.10;;;4.40;99.90;;;;;;7387936;19;20309;-81